sensor_id;sensor_type;location;lat;lon;timestamp;P1;durP1;ratioP1;P2;durP2;ratioP2
58876;SDS011;44659;47.002;9.536;2022-10-22T00:00:14;23.17;;;9.20;;
58876;SDS011;44659;47.002;9.536;2022-10-22T00:02:40;17.38;;;9.70;;
58876;SDS011;44659;47.002;9.536;2022-10-22T00:05:05;18.02;;;10.45;;
58876;SDS011;44659;47.002;9.536;2022-10-22T00:07:30;16.10;;;9.93;;
58876;SDS011;44659;47.002;9.536;2022-10-22T00:09:55;20.30;;;11.60;;
58876;SDS011;44659;47.002;9.536;2022-10-22T00:12:21;24.23;;;14.52;;
58876;SDS011;44659;47.002;9.536;2022-10-22T00:14:46;20.02;;;14.40;;
58876;SDS011;44659;47.002;9.536;2022-10-22T00:17:12;25.58;;;15.45;;
58876;SDS011;44659;47.002;9.536;2022-10-22T00:19:38;26.45;;;15.35;;
58876;SDS011;44659;47.002;9.536;2022-10-22T00:22:03;27.35;;;14.68;;
58876;SDS011;44659;47.002;9.536;2022-10-22T00:24:31;24.85;;;14.18;;
58876;SDS011;44659;47.002;9.536;2022-10-22T00:26:57;26.98;;;15.65;;
58876;SDS011;44659;47.002;9.536;2022-10-22T00:29:22;24.33;;;14.57;;
58876;SDS011;44659;47.002;9.536;2022-10-22T00:31:47;20.35;;;13.95;;
58876;SDS011;44659;47.002;9.536;2022-10-22T00:34:18;23.25;;;15.13;;
58876;SDS011;44659;47.002;9.536;2022-10-22T00:36:44;21.88;;;14.95;;
58876;SDS011;44659;47.002;9.536;2022-10-22T00:39:09;24.13;;;16.27;;
58876;SDS011;44659;47.002;9.536;2022-10-22T00:41:34;24.67;;;15.88;;
58876;SDS011;44659;47.002;9.536;2022-10-22T00:44:01;19.83;;;15.80;;
58876;SDS011;44659;47.002;9.536;2022-10-22T00:46:26;18.63;;;14.60;;
58876;SDS011;44659;47.002;9.536;2022-10-22T00:48:52;20.00;;;14.55;;
58876;SDS011;44659;47.002;9.536;2022-10-22T00:51:18;19.55;;;14.73;;
58876;SDS011;44659;47.002;9.536;2022-10-22T00:53:44;19.90;;;14.75;;
58876;SDS011;44659;47.002;9.536;2022-10-22T00:56:11;18.05;;;14.32;;
58876;SDS011;44659;47.002;9.536;2022-10-22T00:58:38;22.90;;;15.52;;
58876;SDS011;44659;47.002;9.536;2022-10-22T01:01:05;21.52;;;16.98;;
58876;SDS011;44659;47.002;9.536;2022-10-22T01:03:33;19.33;;;14.65;;
58876;SDS011;44659;47.002;9.536;2022-10-22T01:05:58;22.55;;;14.02;;
58876;SDS011;44659;47.002;9.536;2022-10-22T01:08:34;18.20;;;13.80;;
58876;SDS011;44659;47.002;9.536;2022-10-22T01:19:12;14.43;;;9.90;;
58876;SDS011;44659;47.002;9.536;2022-10-22T01:21:45;15.48;;;9.20;;
58876;SDS011;44659;47.002;9.536;2022-10-22T01:29:09;12.98;;;8.68;;
58876;SDS011;44659;47.002;9.536;2022-10-22T01:31:37;18.25;;;7.80;;
58876;SDS011;44659;47.002;9.536;2022-10-22T01:34:03;10.68;;;6.47;;
58876;SDS011;44659;47.002;9.536;2022-10-22T01:36:30;10.13;;;6.30;;
58876;SDS011;44659;47.002;9.536;2022-10-22T01:38:57;10.52;;;6.15;;
58876;SDS011;44659;47.002;9.536;2022-10-22T01:41:23;9.43;;;5.07;;
58876;SDS011;44659;47.002;9.536;2022-10-22T01:43:48;8.23;;;4.90;;
58876;SDS011;44659;47.002;9.536;2022-10-22T01:46:21;7.33;;;3.00;;
58876;SDS011;44659;47.002;9.536;2022-10-22T01:53:59;4.32;;;1.52;;
58876;SDS011;44659;47.002;9.536;2022-10-22T01:56:28;4.47;;;1.88;;
58876;SDS011;44659;47.002;9.536;2022-10-22T02:04:05;5.20;;;2.38;;
58876;SDS011;44659;47.002;9.536;2022-10-22T02:06:34;7.25;;;2.42;;
58876;SDS011;44659;47.002;9.536;2022-10-22T02:09:01;7.15;;;2.17;;
58876;SDS011;44659;47.002;9.536;2022-10-22T02:11:27;4.28;;;2.33;;
58876;SDS011;44659;47.002;9.536;2022-10-22T02:13:53;4.57;;;2.17;;
58876;SDS011;44659;47.002;9.536;2022-10-22T02:16:22;6.20;;;2.30;;
58876;SDS011;44659;47.002;9.536;2022-10-22T02:18:48;5.00;;;2.20;;
58876;SDS011;44659;47.002;9.536;2022-10-22T02:21:15;6.07;;;1.80;;
58876;SDS011;44659;47.002;9.536;2022-10-22T02:23:40;4.90;;;1.80;;
58876;SDS011;44659;47.002;9.536;2022-10-22T02:26:06;4.07;;;1.85;;
58876;SDS011;44659;47.002;9.536;2022-10-22T02:28:38;4.32;;;2.20;;
58876;SDS011;44659;47.002;9.536;2022-10-22T02:31:13;5.57;;;1.75;;
58876;SDS011;44659;47.002;9.536;2022-10-22T02:33:43;6.88;;;1.92;;
58876;SDS011;44659;47.002;9.536;2022-10-22T02:36:09;2.65;;;1.50;;
58876;SDS011;44659;47.002;9.536;2022-10-22T02:38:35;3.17;;;1.40;;
58876;SDS011;44659;47.002;9.536;2022-10-22T02:41:01;4.88;;;1.65;;
58876;SDS011;44659;47.002;9.536;2022-10-22T02:43:27;4.20;;;1.77;;
58876;SDS011;44659;47.002;9.536;2022-10-22T02:45:52;3.20;;;1.50;;
58876;SDS011;44659;47.002;9.536;2022-10-22T02:48:18;3.70;;;1.43;;
58876;SDS011;44659;47.002;9.536;2022-10-22T02:50:43;5.13;;;1.90;;
58876;SDS011;44659;47.002;9.536;2022-10-22T02:53:08;4.67;;;1.63;;
58876;SDS011;44659;47.002;9.536;2022-10-22T02:55:33;3.43;;;1.40;;
58876;SDS011;44659;47.002;9.536;2022-10-22T02:57:59;2.93;;;1.30;;
58876;SDS011;44659;47.002;9.536;2022-10-22T03:00:24;4.27;;;1.20;;
58876;SDS011;44659;47.002;9.536;2022-10-22T03:02:49;1.77;;;0.90;;
58876;SDS011;44659;47.002;9.536;2022-10-22T03:05:14;1.27;;;0.70;;
58876;SDS011;44659;47.002;9.536;2022-10-22T03:07:39;5.60;;;0.70;;
58876;SDS011;44659;47.002;9.536;2022-10-22T03:10:05;1.10;;;0.70;;
58876;SDS011;44659;47.002;9.536;2022-10-22T03:12:30;4.63;;;0.80;;
58876;SDS011;44659;47.002;9.536;2022-10-22T03:14:55;2.23;;;0.60;;
58876;SDS011;44659;47.002;9.536;2022-10-22T03:17:20;0.73;;;0.50;;
58876;SDS011;44659;47.002;9.536;2022-10-22T03:19:46;0.80;;;0.60;;
58876;SDS011;44659;47.002;9.536;2022-10-22T03:22:21;1.07;;;0.70;;
58876;SDS011;44659;47.002;9.536;2022-10-22T03:24:47;0.75;;;0.52;;
58876;SDS011;44659;47.002;9.536;2022-10-22T03:27:14;1.77;;;0.73;;
58876;SDS011;44659;47.002;9.536;2022-10-22T03:29:40;1.48;;;0.70;;
58876;SDS011;44659;47.002;9.536;2022-10-22T03:32:06;3.58;;;1.05;;
58876;SDS011;44659;47.002;9.536;2022-10-22T03:34:32;1.10;;;0.80;;
58876;SDS011;44659;47.002;9.536;2022-10-22T03:36:57;2.72;;;1.02;;
58876;SDS011;44659;47.002;9.536;2022-10-22T03:39:23;2.60;;;0.73;;
58876;SDS011;44659;47.002;9.536;2022-10-22T03:41:49;1.75;;;1.00;;
58876;SDS011;44659;47.002;9.536;2022-10-22T03:44:15;1.50;;;0.90;;
58876;SDS011;44659;47.002;9.536;2022-10-22T03:46:40;2.00;;;1.10;;
58876;SDS011;44659;47.002;9.536;2022-10-22T03:49:06;4.53;;;1.10;;
58876;SDS011;44659;47.002;9.536;2022-10-22T03:51:31;3.50;;;1.20;;
58876;SDS011;44659;47.002;9.536;2022-10-22T03:53:56;4.53;;;1.30;;
58876;SDS011;44659;47.002;9.536;2022-10-22T03:56:21;2.00;;;0.98;;
58876;SDS011;44659;47.002;9.536;2022-10-22T03:58:47;1.65;;;1.00;;
58876;SDS011;44659;47.002;9.536;2022-10-22T04:01:12;3.70;;;0.90;;
58876;SDS011;44659;47.002;9.536;2022-10-22T04:03:38;1.30;;;0.80;;
58876;SDS011;44659;47.002;9.536;2022-10-22T04:06:07;1.80;;;0.90;;
58876;SDS011;44659;47.002;9.536;2022-10-22T04:08:33;1.80;;;0.90;;
58876;SDS011;44659;47.002;9.536;2022-10-22T04:10:58;1.45;;;0.80;;
58876;SDS011;44659;47.002;9.536;2022-10-22T04:13:24;1.90;;;0.82;;
58876;SDS011;44659;47.002;9.536;2022-10-22T04:15:49;4.07;;;0.80;;
58876;SDS011;44659;47.002;9.536;2022-10-22T04:18:16;1.75;;;0.90;;
58876;SDS011;44659;47.002;9.536;2022-10-22T04:20:41;1.73;;;1.00;;
58876;SDS011;44659;47.002;9.536;2022-10-22T04:23:06;1.57;;;1.00;;
58876;SDS011;44659;47.002;9.536;2022-10-22T04:25:32;2.10;;;1.00;;
58876;SDS011;44659;47.002;9.536;2022-10-22T04:27:57;1.80;;;1.00;;
58876;SDS011;44659;47.002;9.536;2022-10-22T04:30:22;2.35;;;1.00;;
58876;SDS011;44659;47.002;9.536;2022-10-22T04:32:47;2.90;;;1.13;;
58876;SDS011;44659;47.002;9.536;2022-10-22T04:35:13;2.22;;;1.20;;
58876;SDS011;44659;47.002;9.536;2022-10-22T04:37:38;2.58;;;1.10;;
58876;SDS011;44659;47.002;9.536;2022-10-22T04:40:03;2.95;;;1.05;;
58876;SDS011;44659;47.002;9.536;2022-10-22T04:42:29;1.73;;;0.90;;
58876;SDS011;44659;47.002;9.536;2022-10-22T04:44:54;1.80;;;0.87;;
58876;SDS011;44659;47.002;9.536;2022-10-22T04:47:19;2.47;;;1.00;;
58876;SDS011;44659;47.002;9.536;2022-10-22T04:49:44;1.67;;;0.85;;
58876;SDS011;44659;47.002;9.536;2022-10-22T04:52:10;1.67;;;0.90;;
58876;SDS011;44659;47.002;9.536;2022-10-22T04:54:36;2.50;;;1.00;;
58876;SDS011;44659;47.002;9.536;2022-10-22T04:57:01;2.73;;;1.00;;
58876;SDS011;44659;47.002;9.536;2022-10-22T04:59:26;2.10;;;1.17;;
58876;SDS011;44659;47.002;9.536;2022-10-22T05:01:52;3.17;;;0.88;;
58876;SDS011;44659;47.002;9.536;2022-10-22T05:04:17;3.53;;;1.40;;
58876;SDS011;44659;47.002;9.536;2022-10-22T05:06:43;1.52;;;1.00;;
58876;SDS011;44659;47.002;9.536;2022-10-22T05:09:18;1.67;;;1.00;;
58876;SDS011;44659;47.002;9.536;2022-10-22T05:11:45;4.57;;;1.55;;
58876;SDS011;44659;47.002;9.536;2022-10-22T05:14:12;3.78;;;0.80;;
58876;SDS011;44659;47.002;9.536;2022-10-22T05:16:38;1.67;;;0.70;;
58876;SDS011;44659;47.002;9.536;2022-10-22T05:19:03;2.55;;;0.90;;
58876;SDS011;44659;47.002;9.536;2022-10-22T05:21:28;2.17;;;0.80;;
58876;SDS011;44659;47.002;9.536;2022-10-22T05:23:54;2.47;;;0.73;;
58876;SDS011;44659;47.002;9.536;2022-10-22T05:26:20;1.58;;;0.70;;
58876;SDS011;44659;47.002;9.536;2022-10-22T05:28:45;2.60;;;0.90;;
58876;SDS011;44659;47.002;9.536;2022-10-22T05:31:11;3.08;;;1.05;;
58876;SDS011;44659;47.002;9.536;2022-10-22T05:33:37;3.88;;;0.85;;
58876;SDS011;44659;47.002;9.536;2022-10-22T05:36:03;2.25;;;1.20;;
58876;SDS011;44659;47.002;9.536;2022-10-22T05:38:29;2.13;;;1.08;;
58876;SDS011;44659;47.002;9.536;2022-10-22T05:41:02;5.40;;;2.67;;
58876;SDS011;44659;47.002;9.536;2022-10-22T05:43:28;4.80;;;1.92;;
58876;SDS011;44659;47.002;9.536;2022-10-22T05:45:54;2.60;;;1.08;;
58876;SDS011;44659;47.002;9.536;2022-10-22T05:48:19;3.75;;;1.20;;
58876;SDS011;44659;47.002;9.536;2022-10-22T05:50:45;3.17;;;1.10;;
58876;SDS011;44659;47.002;9.536;2022-10-22T05:53:14;2.47;;;1.00;;
58876;SDS011;44659;47.002;9.536;2022-10-22T05:55:39;3.45;;;0.95;;
58876;SDS011;44659;47.002;9.536;2022-10-22T05:58:05;2.60;;;1.05;;
58876;SDS011;44659;47.002;9.536;2022-10-22T06:00:30;4.82;;;1.30;;
58876;SDS011;44659;47.002;9.536;2022-10-22T06:02:55;4.55;;;2.03;;
58876;SDS011;44659;47.002;9.536;2022-10-22T06:05:20;4.93;;;1.80;;
58876;SDS011;44659;47.002;9.536;2022-10-22T06:07:46;7.53;;;2.30;;
58876;SDS011;44659;47.002;9.536;2022-10-22T06:10:14;7.20;;;2.72;;
58876;SDS011;44659;47.002;9.536;2022-10-22T06:12:40;7.38;;;2.20;;
58876;SDS011;44659;47.002;9.536;2022-10-22T06:15:06;6.72;;;1.80;;
58876;SDS011;44659;47.002;9.536;2022-10-22T06:17:31;5.65;;;1.98;;
58876;SDS011;44659;47.002;9.536;2022-10-22T06:19:56;6.68;;;2.58;;
58876;SDS011;44659;47.002;9.536;2022-10-22T06:22:22;7.73;;;2.20;;
58876;SDS011;44659;47.002;9.536;2022-10-22T06:24:47;2.97;;;1.23;;
58876;SDS011;44659;47.002;9.536;2022-10-22T06:27:12;7.10;;;1.27;;
58876;SDS011;44659;47.002;9.536;2022-10-22T06:29:37;1.88;;;0.88;;
58876;SDS011;44659;47.002;9.536;2022-10-22T06:32:03;2.50;;;0.93;;
58876;SDS011;44659;47.002;9.536;2022-10-22T06:34:28;3.33;;;0.98;;
58876;SDS011;44659;47.002;9.536;2022-10-22T06:36:53;2.87;;;1.10;;
58876;SDS011;44659;47.002;9.536;2022-10-22T06:39:18;3.00;;;0.77;;
58876;SDS011;44659;47.002;9.536;2022-10-22T06:41:44;4.73;;;1.03;;
58876;SDS011;44659;47.002;9.536;2022-10-22T06:44:12;3.63;;;1.02;;
58876;SDS011;44659;47.002;9.536;2022-10-22T06:46:38;1.88;;;0.70;;
58876;SDS011;44659;47.002;9.536;2022-10-22T06:49:03;4.03;;;0.90;;
58876;SDS011;44659;47.002;9.536;2022-10-22T06:51:29;5.07;;;1.10;;
58876;SDS011;44659;47.002;9.536;2022-10-22T06:53:55;2.58;;;0.90;;
58876;SDS011;44659;47.002;9.536;2022-10-22T06:56:21;2.65;;;0.90;;
58876;SDS011;44659;47.002;9.536;2022-10-22T06:58:50;2.60;;;0.82;;
58876;SDS011;44659;47.002;9.536;2022-10-22T07:01:16;3.70;;;0.90;;
58876;SDS011;44659;47.002;9.536;2022-10-22T07:03:42;4.05;;;1.00;;
58876;SDS011;44659;47.002;9.536;2022-10-22T07:06:08;2.03;;;0.93;;
58876;SDS011;44659;47.002;9.536;2022-10-22T07:08:33;2.40;;;0.70;;
58876;SDS011;44659;47.002;9.536;2022-10-22T07:13:36;3.05;;;0.60;;
58876;SDS011;44659;47.002;9.536;2022-10-22T07:16:02;5.88;;;1.10;;
58876;SDS011;44659;47.002;9.536;2022-10-22T07:18:27;2.58;;;0.90;;
58876;SDS011;44659;47.002;9.536;2022-10-22T07:20:53;5.72;;;0.80;;
58876;SDS011;44659;47.002;9.536;2022-10-22T07:23:18;3.30;;;1.10;;
58876;SDS011;44659;47.002;9.536;2022-10-22T07:25:43;3.95;;;1.10;;
58876;SDS011;44659;47.002;9.536;2022-10-22T07:28:09;2.08;;;0.80;;
58876;SDS011;44659;47.002;9.536;2022-10-22T07:30:35;2.03;;;0.88;;
58876;SDS011;44659;47.002;9.536;2022-10-22T07:33:00;1.15;;;0.57;;
58876;SDS011;44659;47.002;9.536;2022-10-22T07:35:26;1.55;;;0.68;;
58876;SDS011;44659;47.002;9.536;2022-10-22T07:37:51;2.90;;;0.63;;
58876;SDS011;44659;47.002;9.536;2022-10-22T07:40:16;4.55;;;0.80;;
58876;SDS011;44659;47.002;9.536;2022-10-22T07:42:42;1.63;;;0.75;;
58876;SDS011;44659;47.002;9.536;2022-10-22T07:45:09;2.28;;;0.80;;
58876;SDS011;44659;47.002;9.536;2022-10-22T07:47:35;2.70;;;0.82;;
58876;SDS011;44659;47.002;9.536;2022-10-22T07:50:00;2.28;;;0.52;;
58876;SDS011;44659;47.002;9.536;2022-10-22T07:52:26;6.47;;;1.30;;
58876;SDS011;44659;47.002;9.536;2022-10-22T07:54:51;6.60;;;1.52;;
58876;SDS011;44659;47.002;9.536;2022-10-22T07:57:17;7.15;;;1.65;;
58876;SDS011;44659;47.002;9.536;2022-10-22T07:59:43;8.80;;;1.30;;
58876;SDS011;44659;47.002;9.536;2022-10-22T08:02:10;5.95;;;1.35;;
58876;SDS011;44659;47.002;9.536;2022-10-22T08:04:35;5.30;;;1.35;;
58876;SDS011;44659;47.002;9.536;2022-10-22T08:07:01;6.05;;;1.45;;
58876;SDS011;44659;47.002;9.536;2022-10-22T08:09:26;6.28;;;1.30;;
58876;SDS011;44659;47.002;9.536;2022-10-22T08:11:51;7.45;;;1.20;;
58876;SDS011;44659;47.002;9.536;2022-10-22T08:14:16;4.40;;;0.95;;
58876;SDS011;44659;47.002;9.536;2022-10-22T08:16:42;1.65;;;0.70;;
58876;SDS011;44659;47.002;9.536;2022-10-22T08:19:07;2.40;;;0.75;;
58876;SDS011;44659;47.002;9.536;2022-10-22T08:21:32;4.30;;;0.70;;
58876;SDS011;44659;47.002;9.536;2022-10-22T08:23:58;2.10;;;0.60;;
58876;SDS011;44659;47.002;9.536;2022-10-22T08:26:23;4.05;;;1.10;;
58876;SDS011;44659;47.002;9.536;2022-10-22T08:28:48;3.97;;;0.70;;
58876;SDS011;44659;47.002;9.536;2022-10-22T08:31:13;2.70;;;0.68;;
58876;SDS011;44659;47.002;9.536;2022-10-22T08:33:39;6.80;;;0.70;;
58876;SDS011;44659;47.002;9.536;2022-10-22T08:36:05;4.40;;;0.90;;
58876;SDS011;44659;47.002;9.536;2022-10-22T08:38:30;7.05;;;0.85;;
58876;SDS011;44659;47.002;9.536;2022-10-22T08:41:16;4.78;;;0.80;;
58876;SDS011;44659;47.002;9.536;2022-10-22T08:48:51;4.63;;;1.02;;
58876;SDS011;44659;47.002;9.536;2022-10-22T08:51:22;3.85;;;0.90;;
58876;SDS011;44659;47.002;9.536;2022-10-22T08:56:33;6.47;;;1.50;;
58876;SDS011;44659;47.002;9.536;2022-10-22T08:59:05;6.75;;;2.20;;
58876;SDS011;44659;47.002;9.536;2022-10-22T09:01:35;9.55;;;1.80;;
58876;SDS011;44659;47.002;9.536;2022-10-22T09:04:18;7.28;;;2.50;;
58876;SDS011;44659;47.002;9.536;2022-10-22T09:06:49;6.95;;;2.25;;
58876;SDS011;44659;47.002;9.536;2022-10-22T09:09:15;7.00;;;2.15;;
58876;SDS011;44659;47.002;9.536;2022-10-22T09:11:45;7.65;;;2.35;;
58876;SDS011;44659;47.002;9.536;2022-10-22T09:14:14;6.80;;;1.92;;
58876;SDS011;44659;47.002;9.536;2022-10-22T09:26:24;2.63;;;0.82;;
58876;SDS011;44659;47.002;9.536;2022-10-22T09:28:50;2.83;;;0.70;;
58876;SDS011;44659;47.002;9.536;2022-10-22T09:31:15;3.75;;;1.13;;
58876;SDS011;44659;47.002;9.536;2022-10-22T09:33:42;5.72;;;1.30;;
58876;SDS011;44659;47.002;9.536;2022-10-22T09:36:07;6.03;;;1.50;;
58876;SDS011;44659;47.002;9.536;2022-10-22T09:38:43;4.35;;;1.20;;
58876;SDS011;44659;47.002;9.536;2022-10-22T09:41:09;2.30;;;0.70;;
58876;SDS011;44659;47.002;9.536;2022-10-22T09:43:34;3.88;;;1.13;;
58876;SDS011;44659;47.002;9.536;2022-10-22T09:46:04;2.67;;;0.93;;
58876;SDS011;44659;47.002;9.536;2022-10-22T09:48:33;5.22;;;1.33;;
58876;SDS011;44659;47.002;9.536;2022-10-22T09:53:25;4.30;;;1.27;;
58876;SDS011;44659;47.002;9.536;2022-10-22T09:55:54;3.67;;;0.90;;
58876;SDS011;44659;47.002;9.536;2022-10-22T09:58:20;3.17;;;0.70;;
58876;SDS011;44659;47.002;9.536;2022-10-22T10:00:49;1.55;;;0.60;;
58876;SDS011;44659;47.002;9.536;2022-10-22T10:03:19;3.47;;;1.35;;
58876;SDS011;44659;47.002;9.536;2022-10-22T10:05:46;1.58;;;0.60;;
58876;SDS011;44659;47.002;9.536;2022-10-22T10:08:12;1.40;;;0.43;;
58876;SDS011;44659;47.002;9.536;2022-10-22T10:10:45;2.08;;;0.65;;
58876;SDS011;44659;47.002;9.536;2022-10-22T10:21:05;0.90;;;0.40;;
58876;SDS011;44659;47.002;9.536;2022-10-22T10:24:16;1.40;;;0.63;;
58876;SDS011;44659;47.002;9.536;2022-10-22T10:26:38;1.20;;;0.47;;
58876;SDS011;44659;47.002;9.536;2022-10-22T10:29:13;0.98;;;0.40;;
58876;SDS011;44659;47.002;9.536;2022-10-22T10:34:16;1.00;;;0.50;;
58876;SDS011;44659;47.002;9.536;2022-10-22T10:39:27;0.85;;;0.35;;
58876;SDS011;44659;47.002;9.536;2022-10-22T10:42:08;1.88;;;0.40;;
58876;SDS011;44659;47.002;9.536;2022-10-22T10:47:10;1.20;;;0.30;;
58876;SDS011;44659;47.002;9.536;2022-10-22T10:49:36;1.40;;;0.40;;
58876;SDS011;44659;47.002;9.536;2022-10-22T11:00:03;0.40;;;0.40;;
58876;SDS011;44659;47.002;9.536;2022-10-22T11:07:56;0.50;;;0.20;;
58876;SDS011;44659;47.002;9.536;2022-10-22T11:10:27;0.20;;;0.20;;
58876;SDS011;44659;47.002;9.536;2022-10-22T11:12:55;0.73;;;0.22;;
58876;SDS011;44659;47.002;9.536;2022-10-22T11:15:26;4.20;;;0.47;;
58876;SDS011;44659;47.002;9.536;2022-10-22T11:17:53;0.55;;;0.30;;
58876;SDS011;44659;47.002;9.536;2022-10-22T11:20:21;1.35;;;0.40;;
58876;SDS011;44659;47.002;9.536;2022-10-22T11:22:56;0.20;;;0.20;;
58876;SDS011;44659;47.002;9.536;2022-10-22T11:25:25;0.43;;;0.20;;
58876;SDS011;44659;47.002;9.536;2022-10-22T11:28:01;0.88;;;0.35;;
58876;SDS011;44659;47.002;9.536;2022-10-22T11:30:29;4.45;;;0.50;;
58876;SDS011;44659;47.002;9.536;2022-10-22T11:32:59;1.10;;;0.50;;
58876;SDS011;44659;47.002;9.536;2022-10-22T11:35:36;1.00;;;0.40;;
58876;SDS011;44659;47.002;9.536;2022-10-22T11:38:03;1.15;;;0.50;;
58876;SDS011;44659;47.002;9.536;2022-10-22T11:40:34;0.95;;;0.40;;
58876;SDS011;44659;47.002;9.536;2022-10-22T11:45:29;2.95;;;0.43;;
58876;SDS011;44659;47.002;9.536;2022-10-22T11:53:30;0.40;;;0.20;;
58876;SDS011;44659;47.002;9.536;2022-10-22T11:55:57;0.20;;;0.20;;
58876;SDS011;44659;47.002;9.536;2022-10-22T11:58:29;0.77;;;0.20;;
58876;SDS011;44659;47.002;9.536;2022-10-22T12:11:13;1.87;;;0.30;;
58876;SDS011;44659;47.002;9.536;2022-10-22T12:16:34;3.33;;;0.40;;
58876;SDS011;44659;47.002;9.536;2022-10-22T12:19:01;0.30;;;0.28;;
58876;SDS011;44659;47.002;9.536;2022-10-22T12:21:27;0.80;;;0.28;;
58876;SDS011;44659;47.002;9.536;2022-10-22T12:23:52;0.22;;;0.20;;
58876;SDS011;44659;47.002;9.536;2022-10-22T12:26:35;1.25;;;0.20;;
58876;SDS011;44659;47.002;9.536;2022-10-22T12:29:02;0.52;;;0.20;;
58876;SDS011;44659;47.002;9.536;2022-10-22T12:31:34;4.03;;;0.28;;
58876;SDS011;44659;47.002;9.536;2022-10-22T12:34:00;3.20;;;0.20;;
58876;SDS011;44659;47.002;9.536;2022-10-22T12:36:26;0.50;;;0.20;;
58876;SDS011;44659;47.002;9.536;2022-10-22T12:38:51;0.35;;;0.10;;
58876;SDS011;44659;47.002;9.536;2022-10-22T12:41:17;0.50;;;0.20;;
58876;SDS011;44659;47.002;9.536;2022-10-22T12:43:42;0.25;;;0.10;;
58876;SDS011;44659;47.002;9.536;2022-10-22T12:46:17;1.58;;;0.20;;
58876;SDS011;44659;47.002;9.536;2022-10-22T12:48:43;0.10;;;0.10;;
58876;SDS011;44659;47.002;9.536;2022-10-22T12:51:11;0.57;;;0.25;;
58876;SDS011;44659;47.002;9.536;2022-10-22T12:53:41;0.30;;;0.10;;
58876;SDS011;44659;47.002;9.536;2022-10-22T12:56:14;0.25;;;0.20;;
58876;SDS011;44659;47.002;9.536;2022-10-22T12:58:49;0.98;;;0.20;;
58876;SDS011;44659;47.002;9.536;2022-10-22T13:01:16;0.93;;;0.28;;
58876;SDS011;44659;47.002;9.536;2022-10-22T13:03:42;1.63;;;0.20;;
58876;SDS011;44659;47.002;9.536;2022-10-22T13:08:43;1.75;;;0.20;;
58876;SDS011;44659;47.002;9.536;2022-10-22T13:11:09;1.98;;;0.28;;
58876;SDS011;44659;47.002;9.536;2022-10-22T13:16:14;2.23;;;0.30;;
58876;SDS011;44659;47.002;9.536;2022-10-22T13:18:39;1.20;;;0.40;;
58876;SDS011;44659;47.002;9.536;2022-10-22T13:21:05;2.97;;;0.50;;
58876;SDS011;44659;47.002;9.536;2022-10-22T13:23:31;1.45;;;0.55;;
58876;SDS011;44659;47.002;9.536;2022-10-22T13:28:23;1.08;;;0.40;;
58876;SDS011;44659;47.002;9.536;2022-10-22T13:30:55;1.02;;;0.40;;
58876;SDS011;44659;47.002;9.536;2022-10-22T13:33:22;0.80;;;0.45;;
58876;SDS011;44659;47.002;9.536;2022-10-22T13:35:47;2.40;;;0.35;;
58876;SDS011;44659;47.002;9.536;2022-10-22T13:38:17;1.05;;;0.40;;
58876;SDS011;44659;47.002;9.536;2022-10-22T13:40:43;1.45;;;0.40;;
58876;SDS011;44659;47.002;9.536;2022-10-22T13:43:08;1.60;;;0.35;;
58876;SDS011;44659;47.002;9.536;2022-10-22T13:45:33;0.53;;;0.23;;
58876;SDS011;44659;47.002;9.536;2022-10-22T13:47:59;1.45;;;0.20;;
58876;SDS011;44659;47.002;9.536;2022-10-22T13:50:24;0.50;;;0.30;;
58876;SDS011;44659;47.002;9.536;2022-10-22T13:52:50;2.47;;;0.40;;
58876;SDS011;44659;47.002;9.536;2022-10-22T13:57:41;3.00;;;0.40;;
58876;SDS011;44659;47.002;9.536;2022-10-22T14:00:09;1.40;;;0.40;;
58876;SDS011;44659;47.002;9.536;2022-10-22T14:02:35;2.05;;;0.55;;
58876;SDS011;44659;47.002;9.536;2022-10-22T14:05:00;4.33;;;0.40;;
58876;SDS011;44659;47.002;9.536;2022-10-22T14:07:28;0.75;;;0.40;;
58876;SDS011;44659;47.002;9.536;2022-10-22T14:09:53;2.17;;;0.50;;
58876;SDS011;44659;47.002;9.536;2022-10-22T14:12:18;1.77;;;0.50;;
58876;SDS011;44659;47.002;9.536;2022-10-22T14:14:45;4.97;;;2.00;;
58876;SDS011;44659;47.002;9.536;2022-10-22T14:17:30;0.57;;;0.35;;
58876;SDS011;44659;47.002;9.536;2022-10-22T14:19:56;1.77;;;0.70;;
58876;SDS011;44659;47.002;9.536;2022-10-22T14:22:21;5.30;;;0.68;;
58876;SDS011;44659;47.002;9.536;2022-10-22T14:27:23;2.78;;;0.57;;
58876;SDS011;44659;47.002;9.536;2022-10-22T14:29:48;4.35;;;0.63;;
58876;SDS011;44659;47.002;9.536;2022-10-22T14:32:15;4.90;;;0.50;;
58876;SDS011;44659;47.002;9.536;2022-10-22T14:34:43;2.20;;;0.68;;
58876;SDS011;44659;47.002;9.536;2022-10-22T14:37:15;1.35;;;0.50;;
58876;SDS011;44659;47.002;9.536;2022-10-22T14:39:40;1.15;;;0.43;;
58876;SDS011;44659;47.002;9.536;2022-10-22T14:42:08;0.77;;;0.50;;
58876;SDS011;44659;47.002;9.536;2022-10-22T14:44:33;2.63;;;0.55;;
58876;SDS011;44659;47.002;9.536;2022-10-22T14:46:59;1.43;;;0.60;;
58876;SDS011;44659;47.002;9.536;2022-10-22T14:49:24;1.17;;;0.40;;
58876;SDS011;44659;47.002;9.536;2022-10-22T14:51:49;1.30;;;0.33;;
58876;SDS011;44659;47.002;9.536;2022-10-22T14:54:14;0.37;;;0.30;;
58876;SDS011;44659;47.002;9.536;2022-10-22T14:56:40;1.40;;;0.60;;
58876;SDS011;44659;47.002;9.536;2022-10-22T14:59:06;2.45;;;0.57;;
58876;SDS011;44659;47.002;9.536;2022-10-22T15:01:31;3.47;;;0.40;;
58876;SDS011;44659;47.002;9.536;2022-10-22T15:03:56;2.53;;;0.60;;
58876;SDS011;44659;47.002;9.536;2022-10-22T15:06:21;1.47;;;0.43;;
58876;SDS011;44659;47.002;9.536;2022-10-22T15:08:46;2.30;;;0.50;;
58876;SDS011;44659;47.002;9.536;2022-10-22T15:11:12;2.97;;;1.10;;
58876;SDS011;44659;47.002;9.536;2022-10-22T15:13:37;1.95;;;0.38;;
58876;SDS011;44659;47.002;9.536;2022-10-22T15:16:06;2.17;;;0.50;;
58876;SDS011;44659;47.002;9.536;2022-10-22T15:18:31;1.63;;;0.57;;
58876;SDS011;44659;47.002;9.536;2022-10-22T15:21:01;2.70;;;0.40;;
58876;SDS011;44659;47.002;9.536;2022-10-22T15:23:26;1.08;;;0.40;;
58876;SDS011;44659;47.002;9.536;2022-10-22T15:25:52;1.40;;;0.40;;
58876;SDS011;44659;47.002;9.536;2022-10-22T15:28:17;1.80;;;0.50;;
58876;SDS011;44659;47.002;9.536;2022-10-22T15:30:42;3.60;;;0.80;;
58876;SDS011;44659;47.002;9.536;2022-10-22T15:33:08;7.13;;;2.70;;
58876;SDS011;44659;47.002;9.536;2022-10-22T15:35:33;6.07;;;1.67;;
58876;SDS011;44659;47.002;9.536;2022-10-22T15:37:58;2.35;;;0.70;;
58876;SDS011;44659;47.002;9.536;2022-10-22T15:40:24;6.30;;;1.10;;
58876;SDS011;44659;47.002;9.536;2022-10-22T15:42:49;2.60;;;1.40;;
58876;SDS011;44659;47.002;9.536;2022-10-22T15:45:14;1.67;;;0.80;;
58876;SDS011;44659;47.002;9.536;2022-10-22T15:47:40;2.95;;;1.30;;
58876;SDS011;44659;47.002;9.536;2022-10-22T15:50:08;3.88;;;1.23;;
58876;SDS011;44659;47.002;9.536;2022-10-22T15:52:33;3.40;;;1.00;;
58876;SDS011;44659;47.002;9.536;2022-10-22T15:54:59;2.55;;;0.70;;
58876;SDS011;44659;47.002;9.536;2022-10-22T15:57:27;1.13;;;0.50;;
58876;SDS011;44659;47.002;9.536;2022-10-22T15:59:52;0.87;;;0.50;;
58876;SDS011;44659;47.002;9.536;2022-10-22T16:02:17;1.70;;;0.70;;
58876;SDS011;44659;47.002;9.536;2022-10-22T16:04:42;1.23;;;0.57;;
58876;SDS011;44659;47.002;9.536;2022-10-22T16:07:08;2.67;;;0.90;;
58876;SDS011;44659;47.002;9.536;2022-10-22T16:09:33;0.90;;;0.60;;
58876;SDS011;44659;47.002;9.536;2022-10-22T16:11:58;3.00;;;0.80;;
58876;SDS011;44659;47.002;9.536;2022-10-22T16:14:23;1.63;;;0.60;;
58876;SDS011;44659;47.002;9.536;2022-10-22T16:16:50;1.17;;;0.50;;
58876;SDS011;44659;47.002;9.536;2022-10-22T16:19:16;2.10;;;0.63;;
58876;SDS011;44659;47.002;9.536;2022-10-22T16:21:41;1.50;;;0.80;;
58876;SDS011;44659;47.002;9.536;2022-10-22T16:24:11;2.25;;;0.70;;
58876;SDS011;44659;47.002;9.536;2022-10-22T16:26:37;1.85;;;0.90;;
58876;SDS011;44659;47.002;9.536;2022-10-22T16:29:03;1.63;;;0.55;;
58876;SDS011;44659;47.002;9.536;2022-10-22T16:31:28;1.80;;;0.73;;